| time (UTC) | temp C | wind direction | speed KPH | gust KPH | rain 1hr cm | rain 24hr cm | rain mn cm | humidity % | barometer mb |
| 20260906035405 | 12 | 356 | 17.7 | 24.1 | 0.00 | 0.03 | 0.03 | 86 | 585.3 |
| 20260906034718 | 12 | 354 | 16.1 | 22.5 | 0.00 | 0.03 | 0.03 | 87 | 585.2 |
| 20260906033603 | 12 | 355 | 17.7 | 20.9 | 0.00 | 0.03 | 0.03 | 87 | 585.0 |
| 20260906032703 | 12 | 358 | 17.7 | 20.9 | 0.00 | 0.03 | 0.03 | 88 | 584.8 |
| 20260906031803 | 12 | 353 | 19.3 | 22.5 | 0.00 | 0.03 | 0.03 | 88 | 584.6 |
| 20260906031117 | 12 | 347 | 19.3 | 24.1 | 0.00 | 0.03 | 0.03 | 88 | 584.6 |
| 20260906030004 | 12 | 338 | 16.1 | 17.7 | 0.00 | 0.03 | 0.03 | 89 | 584.3 |
| 20260906025404 | 12 | 338 | 14.5 | 17.7 | 0.00 | 0.03 | 0.03 | 89 | 584.2 |
| 20260906024504 | 12 | 328 | 6.4 | 16.1 | 0.00 | 0.03 | 0.03 | 88 | 584.1 |
| 20260906023603 | 13 | 313 | 3.2 | 4.8 | 0.03 | 0.03 | 0.03 | 88 | 583.8 |
| 20260906022704 | 13 | 323 | 3.2 | 6.4 | 0.03 | 0.03 | 0.03 | 88 | 583.6 |
| 20260906021803 | 13 | 316 | 6.4 | 6.4 | 0.03 | 0.03 | 0.03 | 89 | 583.6 |
| 20260906020904 | 13 | 296 | 6.4 | 8.0 | 0.03 | 0.03 | 0.03 | 89 | 583.6 |
| 20260906020220 | 13 | 306 | 11.3 | 16.1 | 0.03 | 0.03 | 0.03 | 88 | 583.7 |
| 20260906015403 | 13 | 315 | 12.9 | 17.7 | 0.03 | 0.03 | 0.03 | 88 | 583.5 |
| 20260906014504 | 13 | 286 | 3.2 | 6.4 | 0.03 | 0.05 | 0.03 | 88 | 583.1 |
| 20260906013603 | 13 | 312 | 6.4 | 8.0 | 0.00 | 0.05 | 0.00 | 87 | 583.1 |
| 20260906012704 | 13 | 291 | 9.7 | 11.3 | 0.00 | 0.05 | 0.00 | 87 | 583.2 |
| 20260906011803 | 13 | 271 | 8.0 | 11.3 | 0.00 | 0.05 | 0.00 | 87 | 583.0 |
| 20260906011118 | 13 | 295 | 4.8 | 6.4 | 0.00 | 0.05 | 0.00 | 86 | 583.0 |
| 20260906010004 | 13 | 262 | 6.4 | 8.0 | 0.00 | 0.05 | 0.00 | 86 | 582.9 |
| 20260906005403 | 13 | 263 | 8.0 | 11.3 | 0.00 | 0.05 | 0.00 | 85 | 582.9 |
| 20260906004504 | 13 | 270 | 8.0 | 8.0 | 0.00 | 0.05 | 0.00 | 85 | 582.8 |
| 20260906003603 | 13 | 263 | 8.0 | 9.7 | 0.00 | 0.05 | 0.00 | 84 | 582.8 |
| 20260906002704 | 13 | 266 | 8.0 | 9.7 | 0.00 | 0.05 | 0.00 | 84 | 582.6 |
| 20260906001803 | 13 | 293 | 8.0 | 9.7 | 0.00 | 0.05 | 0.00 | 84 | 582.7 |
| 20260906000905 | 13 | 275 | 8.0 | 9.7 | 0.00 | 0.05 | 0.00 | 83 | 582.8 |
| 20260906000003 | 13 | 266 | 9.7 | 11.3 | 0.00 | 0.05 | 0.00 | 83 | 582.5 |
| 20260905235403 | 13 | 262 | 9.7 | 12.9 | 0.00 | 0.05 | 0.00 | 83 | 582.4 |
| 20260905234503 | 13 | 271 | 8.0 | 9.7 | 0.00 | 0.05 | 0.00 | 83 | 582.3 |
| 20260905233817 | 13 | 264 | 8.0 | 9.7 | 0.00 | 0.05 | 0.00 | 83 | 582.3 |
| 20260905232704 | 13 | 276 | 8.0 | 12.9 | 0.00 | 0.05 | 0.00 | 83 | 582.3 |
| 20260905232018 | 13 | 267 | 9.7 | 12.9 | 0.00 | 0.05 | 0.00 | 83 | 582.3 |
| 20260905230903 | 13 | 261 | 9.7 | 12.9 | 0.00 | 0.05 | 0.00 | 83 | 582.1 |
| 20260905230003 | 13 | 265 | 9.7 | 12.9 | 0.00 | 0.05 | 0.00 | 83 | 582.3 |
| 20260905225404 | 13 | 274 | 9.7 | 12.9 | 0.00 | 0.05 | 0.00 | 82 | 582.2 |
| 20260905224503 | 13 | 266 | 8.0 | 9.7 | 0.00 | 0.05 | 0.00 | 82 | 582.3 |
| 20260905223604 | 13 | 285 | 8.0 | 9.7 | 0.00 | 0.05 | 0.00 | 82 | 582.3 |
| 20260905222703 | 13 | 272 | 9.7 | 12.9 | 0.00 | 0.05 | 0.00 | 82 | 582.2 |
| 20260905221804 | 13 | 274 | 11.3 | 12.9 | 0.00 | 0.05 | 0.00 | 82 | 582.2 |
| 20260905220903 | 13 | 270 | 8.0 | 12.9 | 0.00 | 0.05 | 0.00 | 81 | 582.2 |
| 20260905220004 | 13 | 270 | 6.4 | 9.7 | 0.00 | 0.05 | 0.00 | 80 | 582.0 |
| 20260905215403 | 13 | 273 | 6.4 | 8.0 | 0.00 | 0.05 | 0.00 | 80 | 582.0 |
| 20260905214504 | 13 | 276 | 8.0 | 8.0 | 0.00 | 0.05 | 0.00 | 80 | 581.9 |
| 20260905213603 | 13 | 293 | 8.0 | 11.3 | 0.00 | 0.05 | 0.00 | 79 | 581.8 |
| 20260905212704 | 13 | 303 | 11.3 | 11.3 | 0.00 | 0.05 | 0.00 | 79 | 581.9 |
| 20260905212017 | 13 | 299 | 9.7 | 12.9 | 0.00 | 0.05 | 0.00 | 79 | 581.8 |
| 20260905210903 | 13 | 312 | 9.7 | 12.9 | 0.00 | 0.05 | 0.00 | 79 | 581.7 |
| 20260905210004 | 13 | 298 | 9.7 | 12.9 | 0.00 | 0.05 | 0.00 | 79 | 581.8 |
| 20260905205403 | 13 | 303 | 9.7 | 11.3 | 0.00 | 0.05 | 0.05 | 79 | 581.7 |
| 20260905204503 | 13 | 308 | 9.7 | 11.3 | 0.00 | 0.05 | 0.05 | 79 | 581.6 |
| 20260905203603 | 13 | 298 | 9.7 | 12.9 | 0.00 | 0.05 | 0.05 | 80 | 581.6 |
| 20260905202703 | 13 | 283 | 8.0 | 11.3 | 0.00 | 0.05 | 0.05 | 80 | 581.5 |
| 20260905201804 | 13 | 283 | 8.0 | 8.0 | 0.00 | 0.05 | 0.05 | 81 | 581.4 |
| 20260905200903 | 13 | 304 | 9.7 | 11.3 | 0.00 | 0.05 | 0.05 | 81 | 581.3 |
| 20260905200003 | 13 | 279 | 8.0 | 12.9 | 0.00 | 0.05 | 0.05 | 80 | 581.4 |
| 20260905195403 | 13 | 293 | 9.7 | 12.9 | 0.00 | 0.05 | 0.05 | 80 | 581.2 |
| 20260905194504 | 13 | 286 | 8.0 | 9.7 | 0.00 | 0.05 | 0.05 | 80 | 581.2 |
| 20260905193603 | 12 | 272 | 8.0 | 9.7 | 0.00 | 0.05 | 0.05 | 80 | 581.1 |
| 20260905192703 | 12 | 276 | 6.4 | 8.0 | 0.00 | 0.05 | 0.05 | 79 | 581.2 |
| 20260905191803 | 12 | 281 | 8.0 | 9.7 | 0.00 | 0.05 | 0.05 | 79 | 581.2 |
| 20260905190903 | 12 | 276 | 8.0 | 9.7 | 0.00 | 0.05 | 0.05 | 78 | 581.2 |
| 20260905190005 | 12 | 284 | 8.0 | 9.7 | 0.00 | 0.05 | 0.05 | 78 | 581.2 |
| 20260905185403 | 12 | 269 | 6.4 | 6.4 | 0.00 | 0.05 | 0.05 | 78 | 581.2 |
| 20260905184503 | 12 | 276 | 6.4 | 8.0 | 0.00 | 0.05 | 0.05 | 77 | 581.2 |
| 20260905183603 | 12 | 269 | 6.4 | 6.4 | 0.00 | 0.05 | 0.05 | 77 | 581.0 |
| 20260905182703 | 12 | 275 | 8.0 | 9.7 | 0.00 | 0.05 | 0.05 | 76 | 581.0 |
| 20260905181804 | 12 | 285 | 8.0 | 9.7 | 0.00 | 0.05 | 0.05 | 76 | 581.0 |
| 20260905180903 | 12 | 270 | 6.4 | 6.4 | 0.00 | 0.05 | 0.05 | 76 | 580.8 |
| 20260905180219 | 12 | 270 | 6.4 | 6.4 | 0.00 | 0.05 | 0.05 | 75 | 580.8 |
| 20260905175404 | 13 | 285 | 6.4 | 6.4 | 0.00 | 0.05 | 0.05 | 74 | 580.7 |
| 20260905174503 | 13 | 308 | 6.4 | 9.7 | 0.00 | 0.05 | 0.05 | 73 | 580.6 |
| 20260905173603 | 13 | 291 | 6.4 | 8.0 | 0.00 | 0.05 | 0.05 | 73 | 580.6 |
| 20260905172703 | 13 | 288 | 6.4 | 6.4 | 0.00 | 0.05 | 0.05 | 72 | 580.6 |
| 20260905171803 | 13 | 293 | 6.4 | 6.4 | 0.00 | 0.05 | 0.05 | 69 | 580.5 |
| 20260905170903 | 14 | 313 | 6.4 | 8.0 | 0.00 | 0.05 | 0.05 | 68 | 580.4 |
| 20260905170003 | 15 | 320 | 9.7 | 12.9 | 0.00 | 0.05 | 0.05 | 66 | 580.3 |
| 20260905165403 | 15 | 330 | 11.3 | 16.1 | 0.00 | 0.05 | 0.05 | 65 | 580.3 |
| 20260905164503 | 15 | 326 | 12.9 | 16.1 | 0.00 | 0.05 | 0.05 | 64 | 580.1 |
| 20260905163605 | 15 | 316 | 12.9 | 17.7 | 0.00 | 0.05 | 0.05 | 62 | 580.0 |
| 20260905162704 | 16 | 326 | 12.9 | 16.1 | 0.00 | 0.05 | 0.05 | 61 | 579.9 |
| 20260905161803 | 16 | 342 | 12.9 | 16.1 | 0.00 | 0.05 | 0.05 | 61 | 579.8 |
| 20260905160904 | 16 | 324 | 16.1 | 17.7 | 0.00 | 0.05 | 0.05 | 60 | 579.7 |
| 20260905160004 | 17 | 344 | 16.1 | 19.3 | 0.00 | 0.05 | 0.05 | 58 | 579.5 |
| 20260905155404 | 17 | 352 | 17.7 | 19.3 | 0.00 | 0.05 | 0.05 | 57 | 579.4 |
| 20260905154717 | 17 | 331 | 14.5 | 19.3 | 0.00 | 0.05 | 0.05 | 57 | 579.4 |
| 20260905153603 | 17 | 320 | 17.7 | 20.9 | 0.00 | 0.05 | 0.05 | 57 | 579.2 |
| 20260905152703 | 17 | 326 | 16.1 | 20.9 | 0.00 | 0.05 | 0.05 | 58 | 579.2 |
| 20260905152017 | 18 | 341 | 17.7 | 22.5 | 0.00 | 0.05 | 0.05 | 60 | 579.0 |
| 20260905150903 | 18 | 324 | 22.5 | 24.1 | 0.00 | 0.05 | 0.05 | 56 | 578.9 |
| 20260905150003 | 18 | 317 | 22.5 | 27.4 | 0.00 | 0.05 | 0.05 | 59 | 578.7 |
| 20260905145403 | 18 | 321 | 20.9 | 27.4 | 0.00 | 0.05 | 0.05 | 58 | 578.7 |
| 20260905144503 | 18 | 318 | 22.5 | 33.8 | 0.00 | 0.05 | 0.05 | 57 | 578.5 |
| 20260905143603 | 18 | 338 | 14.5 | 19.3 | 0.00 | 0.05 | 0.05 | 59 | 578.4 |
| 20260905142917 | 17 | 351 | 14.5 | 19.3 | 0.00 | 0.05 | 0.05 | 59 | 578.5 |
| 20260905141803 | 17 | 360 | 16.1 | 19.3 | 0.00 | 0.05 | 0.05 | 59 | 578.5 |
| 20260905140903 | 17 | 360 | 16.1 | 19.3 | 0.00 | 0.05 | 0.05 | 58 | 578.3 |
| 20260905140004 | 17 | 3 | 9.7 | 16.1 | 0.00 | 0.05 | 0.05 | 61 | 578.1 |
| 20260905135403 | 17 | 1 | 11.3 | 12.9 | 0.00 | 0.05 | 0.05 | 63 | 578.1 |
| 20260905134504 | 16 | 358 | 12.9 | 16.1 | 0.00 | 0.05 | 0.05 | 64 | 578.0 |
| 20260905133603 | 16 | 358 | 16.1 | 17.7 | 0.00 | 0.05 | 0.05 | 62 | 578.0 |
| 20260905132916 | 16 | 360 | 16.1 | 19.3 | 0.00 | 0.05 | 0.05 | 62 | 578.0 |
| 20260905131803 | 16 | 1 | 16.1 | 24.1 | 0.00 | 0.05 | 0.05 | 60 | 577.8 |
| 20260905130903 | 17 | 347 | 16.1 | 24.1 | 0.00 | 0.05 | 0.05 | 55 | 577.8 |
| 20260905130004 | 17 | 346 | 12.9 | 16.1 | 0.00 | 0.05 | 0.05 | 56 | 577.7 |
| 20260905125403 | 17 | 339 | 12.9 | 16.1 | 0.00 | 0.05 | 0.05 | 59 | 577.5 |
| 20260905124503 | 17 | 341 | 16.1 | 17.7 | 0.00 | 0.05 | 0.05 | 57 | 577.5 |
| 20260905123603 | 17 | 340 | 14.5 | 17.7 | 0.00 | 0.05 | 0.05 | 56 | 577.4 |
| 20260905122703 | 17 | 317 | 11.3 | 16.1 | 0.00 | 0.05 | 0.05 | 54 | 577.4 |
| 20260905121803 | 17 | 314 | 11.3 | 14.5 | 0.00 | 0.05 | 0.05 | 55 | 577.3 |
| 20260905120905 | 17 | 278 | 11.3 | 12.9 | 0.00 | 0.05 | 0.05 | 53 | 577.3 |
| 20260905120003 | 17 | 317 | 9.7 | 16.1 | 0.00 | 0.05 | 0.05 | 55 | 577.2 |
| 20260905115403 | 17 | 316 | 11.3 | 16.1 | 0.00 | 0.05 | 0.05 | 54 | 577.2 |
| 20260905114504 | 17 | 326 | 11.3 | 12.9 | 0.00 | 0.05 | 0.05 | 55 | 577.1 |
| 20260905113603 | 17 | 349 | 11.3 | 12.9 | 0.00 | 0.05 | 0.05 | 53 | 577.0 |
| 20260905112703 | 17 | 339 | 11.3 | 12.9 | 0.00 | 0.05 | 0.05 | 54 | 576.9 |
| 20260905112017 | 17 | 353 | 12.9 | 17.7 | 0.00 | 0.05 | 0.05 | 54 | 576.9 |
| 20260905110903 | 17 | 343 | 14.5 | 17.7 | 0.00 | 0.05 | 0.05 | 51 | 576.8 |
| 20260905110003 | 17 | 348 | 12.9 | 16.1 | 0.00 | 0.05 | 0.05 | 52 | 576.6 |
| 20260905105403 | 17 | 356 | 14.5 | 16.1 | 0.00 | 0.05 | 0.05 | 51 | 576.6 |
| 20260905104717 | 17 | 356 | 12.9 | 16.1 | 0.00 | 0.05 | 0.05 | 53 | 576.6 |
| 20260905103818 | 17 | 1 | 14.5 | 19.3 | 0.00 | 0.05 | 0.05 | 55 | 576.4 |
| 20260905102705 | 17 | 357 | 12.9 | 17.7 | 0.00 | 0.05 | 0.05 | 55 | 576.1 |
| 20260905101804 | 17 | 16 | 8.0 | 16.1 | 0.00 | 0.05 | 0.05 | 54 | 576.0 |
| 20260905100903 | 17 | 359 | 9.7 | 11.3 | 0.00 | 0.05 | 0.05 | 55 | 576.1 |
| 20260905100004 | 17 | 12 | 8.0 | 11.3 | 0.00 | 0.05 | 0.05 | 58 | 576.0 |
| 20260905095617 | 16 | 25 | 8.0 | 12.9 | 0.00 | 0.05 | 0.05 | 60 | 576.0 |
| 20260905094503 | 16 | 52 | 9.7 | 12.9 | 0.00 | 0.13 | 0.05 | 56 | 575.9 |
| 20260905093603 | 16 | 42 | 9.7 | 11.3 | 0.00 | 0.20 | 0.05 | 57 | 576.0 |
| 20260905092917 | 16 | 52 | 8.0 | 12.9 | 0.00 | 0.20 | 0.05 | 59 | 575.8 |
| 20260905091803 | 16 | 36 | 8.0 | 9.7 | 0.00 | 0.20 | 0.05 | 58 | 575.9 |
| 20260905090904 | 16 | 26 | 6.4 | 8.0 | 0.00 | 0.20 | 0.05 | 63 | 575.8 |
| 20260905090004 | 15 | 39 | 8.0 | 9.7 | 0.00 | 0.20 | 0.05 | 61 | 575.6 |
| 20260905085403 | 15 | 49 | 8.0 | 9.7 | 0.00 | 0.20 | 0.05 | 62 | 575.6 |
| 20260905084506 | 15 | 48 | 8.0 | 11.3 | 0.00 | 0.20 | 0.05 | 64 | 575.4 |
| 20260905083604 | 15 | 49 | 8.0 | 9.7 | 0.00 | 0.20 | 0.05 | 67 | 575.4 |
| 20260905082917 | 15 | 45 | 9.7 | 12.9 | 0.00 | 0.20 | 0.05 | 65 | 575.4 |
| 20260905081804 | 15 | 20 | 11.3 | 14.5 | 0.00 | 0.20 | 0.05 | 63 | 575.3 |
| 20260905080904 | 15 | 9 | 11.3 | 11.3 | 0.00 | 0.20 | 0.05 | 65 | 575.3 |
| 20260905080217 | 15 | 19 | 9.7 | 12.9 | 0.00 | 0.20 | 0.05 | 68 | 575.3 |
| 20260905075403 | 15 | 30 | 11.3 | 12.9 | 0.00 | 0.20 | 0.05 | 70 | 575.2 |
| 20260905074503 | 15 | 27 | 11.3 | 12.9 | 0.00 | 0.20 | 0.05 | 77 | 575.0 |
| 20260905073603 | 15 | 17 | 11.3 | 12.9 | 0.00 | 0.20 | 0.05 | 78 | 574.9 |
| 20260905072918 | 14 | 38 | 8.0 | 11.3 | 0.00 | 0.20 | 0.05 | 79 | 575.0 |
| 20260905071803 | 14 | 45 | 8.0 | 11.3 | 0.00 | 0.20 | 0.05 | 79 | 574.9 |
| 20260905070903 | 14 | 45 | 9.7 | 9.7 | 0.00 | 0.20 | 0.05 | 79 | 574.8 |
| 20260905070004 | 13 | 38 | 9.7 | 11.3 | 0.00 | 0.20 | 0.05 | 83 | 574.9 |
| 20260905065403 | 13 | 27 | 8.0 | 11.3 | 0.00 | 0.20 | 0.05 | 85 | 574.7 |
| 20260905064503 | 13 | 16 | 9.7 | 9.7 | 0.00 | 0.23 | 0.05 | 87 | 574.7 |
| 20260905063817 | 14 | 2 | 9.7 | 12.9 | 0.00 | 0.23 | 0.05 | 88 | 574.7 |
| 20260905062703 | 13 | 3 | 9.7 | 11.3 | 0.00 | 0.23 | 0.05 | 90 | 574.4 |
| 20260905061803 | 13 | 16 | 8.0 | 11.3 | 0.00 | 0.23 | 0.05 | 90 | 574.5 |
| 20260905060903 | 13 | 5 | 9.7 | 11.3 | 0.00 | 0.23 | 0.05 | 91 | 574.4 |
| 20260905060004 | 13 | 5 | 8.0 | 9.7 | 0.00 | 0.23 | 0.05 | 91 | 574.4 |
| 20260905055403 | 13 | 13 | 8.0 | 9.7 | 0.00 | 0.23 | 0.05 | 91 | 574.4 |
| 20260905054503 | 12 | 30 | 6.4 | 8.0 | 0.00 | 0.23 | 0.05 | 92 | 574.4 |
| 20260905053603 | 12 | 37 | 6.4 | 8.0 | 0.00 | 0.23 | 0.05 | 92 | 574.2 |
| 20260905052918 | 12 | 20 | 6.4 | 8.0 | 0.00 | 0.23 | 0.05 | 92 | 574.3 |
| 20260905051803 | 12 | 38 | 4.8 | 6.4 | 0.00 | 0.23 | 0.05 | 92 | 574.1 |
| 20260905050905 | 12 | 44 | 6.4 | 9.7 | 0.00 | 0.23 | 0.05 | 91 | 574.4 |
| 20260905050218 | 12 | 45 | 8.0 | 9.7 | 0.00 | 0.28 | 0.05 | 91 | 574.1 |
| 20260905045403 | 12 | 41 | 4.8 | 6.4 | 0.00 | 0.28 | 0.05 | 91 | 574.2 |
| 20260905044503 | 12 | 26 | 3.2 | 4.8 | 0.00 | 0.28 | 0.05 | 90 | 574.3 |
| 20260905043603 | 12 | 31 | 1.6 | 4.8 | 0.00 | 0.28 | 0.05 | 90 | 574.3 |
| 20260905042703 | 12 | 0 | 0.0 | 0.0 | 0.00 | 0.28 | 0.05 | 90 | 574.2 |
| 20260905041803 | 12 | 39 | 1.6 | 3.2 | 0.00 | 0.28 | 0.05 | 90 | 574.1 |
| 20260905040903 | 12 | 329 | 1.6 | 3.2 | 0.00 | 0.28 | 0.05 | 90 | 574.1 |
| 20260905040004 | 12 | 360 | 3.2 | 3.2 | 0.00 | 0.28 | 0.05 | 89 | 574.1 |